Time,TemperatureF,DewpointF,PressureIn,WindDirection,WindDirectionDegrees,WindSpeedMPH,WindSpeedGustMPH,Humidity,HourlyPrecipIn,Conditions,Clouds,dailyrainin,SoftwareType,DateUTC
2013-01-24 00:00:00,49.0,48.0,-100.00,East,97,1.0,-999.0,98,0.00,,,0.00,,2013-01-24 06:00:00,
2013-01-24 00:32:00,49.0,48.0,-100.00,East,97,1.0,-999.0,98,0.00,,,0.00,,2013-01-24 06:32:00,
2013-01-24 00:42:00,49.0,48.0,-100.00,East,97,1.0,-999.0,98,0.00,,,0.00,,2013-01-24 06:42:00,
2013-01-24 00:52:00,49.0,48.0,-100.00,East,97,1.0,-999.0,98,0.00,,,0.00,,2013-01-24 06:52:00,
2013-01-24 01:00:00,48.0,47.0,-100.00,ESE,105,1.0,-999.0,97,0.00,,,0.00,,2013-01-24 07:00:00,
2013-01-24 01:33:00,48.0,47.0,-100.00,ESE,105,1.0,-999.0,97,0.00,,,0.00,,2013-01-24 07:33:00,
2013-01-24 01:43:00,48.0,47.0,-100.00,ESE,105,1.0,-999.0,97,0.00,,,0.00,,2013-01-24 07:43:00,
2013-01-24 01:53:00,48.0,47.0,-100.00,ESE,105,1.0,-999.0,97,0.00,,,0.00,,2013-01-24 07:53:00,
2013-01-24 02:00:00,48.0,47.0,-100.00,East,101,1.0,-999.0,98,0.00,,,0.00,,2013-01-24 08:00:00,
2013-01-24 02:33:00,48.0,47.0,-100.00,East,101,1.0,-999.0,98,0.00,,,0.00,,2013-01-24 08:33:00,
2013-01-24 02:43:00,48.0,47.0,-100.00,East,101,1.0,-999.0,98,0.00,,,0.00,,2013-01-24 08:43:00,
2013-01-24 02:53:00,48.0,47.0,-100.00,East,101,1.0,-999.0,98,0.00,,,0.00,,2013-01-24 08:53:00,
2013-01-24 04:00:00,47.0,47.0,-100.00,ESE,110,1.0,-999.0,99,0.00,,,0.00,,2013-01-24 10:00:00,
2013-01-24 04:33:00,47.0,47.0,-100.00,ESE,110,1.0,-999.0,99,0.00,,,0.00,,2013-01-24 10:33:00,
2013-01-24 04:43:00,47.0,47.0,-100.00,ESE,110,1.0,-999.0,99,0.00,,,0.00,,2013-01-24 10:43:00,
2013-01-24 04:53:00,47.0,47.0,-100.00,ESE,110,1.0,-999.0,99,0.00,,,0.00,,2013-01-24 10:53:00,
2013-01-24 05:00:00,47.0,46.0,-100.00,NE,51,0.0,-999.0,99,0.00,,,0.00,,2013-01-24 11:00:00,
2013-01-24 05:33:00,47.0,46.0,-100.00,NE,51,0.0,-999.0,99,0.00,,,0.00,,2013-01-24 11:33:00,
2013-01-24 05:43:00,47.0,46.0,-100.00,NE,51,0.0,-999.0,99,0.00,,,0.00,,2013-01-24 11:43:00,
2013-01-24 05:53:00,47.0,46.0,-100.00,NE,51,0.0,-999.0,99,0.00,,,0.00,,2013-01-24 11:53:00,
2013-01-24 06:00:00,47.0,47.0,-100.00,ENE,77,0.0,-999.0,99,0.00,,,0.00,,2013-01-24 12:00:00,
2013-01-24 06:33:00,47.0,47.0,-100.00,ENE,77,0.0,-999.0,99,0.00,,,0.00,,2013-01-24 12:33:00,
2013-01-24 06:43:00,47.0,47.0,-100.00,ENE,77,0.0,-999.0,99,0.00,,,0.00,,2013-01-24 12:43:00,
2013-01-24 06:53:00,47.0,47.0,-100.00,ENE,77,0.0,-999.0,99,0.00,,,0.00,,2013-01-24 12:53:00,
2013-01-24 07:00:00,47.0,47.0,-100.00,North,11,0.0,-999.0,97,0.00,,,0.00,,2013-01-24 13:00:00,
2013-01-24 07:33:00,47.0,47.0,-100.00,North,11,0.0,-999.0,97,0.00,,,0.00,,2013-01-24 13:33:00,
2013-01-24 07:43:00,47.0,47.0,-100.00,North,11,0.0,-999.0,97,0.00,,,0.00,,2013-01-24 13:43:00,
2013-01-24 07:53:00,47.0,47.0,-100.00,North,11,0.0,-999.0,97,0.00,,,0.00,,2013-01-24 13:53:00,
2013-01-24 08:00:00,50.0,49.0,-100.00,SSE,159,1.0,-999.0,94,0.00,,,0.00,,2013-01-24 14:00:00,
2013-01-24 08:33:00,50.0,49.0,-100.00,SSE,159,1.0,-999.0,94,0.00,,,0.00,,2013-01-24 14:33:00,
2013-01-24 08:43:00,50.0,49.0,-100.00,SSE,159,1.0,-999.0,94,0.00,,,0.00,,2013-01-24 14:43:00,
2013-01-24 08:54:00,50.0,49.0,-100.00,SSE,159,1.0,-999.0,94,0.00,,,0.00,,2013-01-24 14:54:00,
2013-01-24 09:00:00,51.0,48.0,-100.00,SE,139,2.0,-999.0,91,0.00,,,0.00,,2013-01-24 15:00:00,
2013-01-24 09:33:00,51.0,48.0,-100.00,SE,139,2.0,-999.0,91,0.00,,,0.00,,2013-01-24 15:33:00,
2013-01-24 09:43:00,51.0,48.0,-100.00,SE,139,2.0,-999.0,91,0.00,,,0.00,,2013-01-24 15:43:00,
2013-01-24 09:53:00,51.0,48.0,-100.00,SE,139,2.0,-999.0,91,0.00,,,0.00,,2013-01-24 15:53:00,
2013-01-24 10:00:00,48.0,46.0,-100.00,SSE,156,1.0,-999.0,94,0.00,,,0.00,,2013-01-24 16:00:00,
2013-01-24 10:33:00,48.0,46.0,-100.00,SSE,156,1.0,-999.0,94,0.00,,,0.00,,2013-01-24 16:33:00,
2013-01-24 10:43:00,48.0,46.0,-100.00,SSE,156,1.0,-999.0,94,0.00,,,0.00,,2013-01-24 16:43:00,
2013-01-24 11:00:00,47.0,44.0,-100.00,West,275,0.0,-999.0,92,0.00,,,0.00,,2013-01-24 17:00:00,
2013-01-24 11:32:00,47.0,44.0,-100.00,West,275,0.0,-999.0,92,0.00,,,0.00,,2013-01-24 17:32:00,
2013-01-24 11:43:00,47.0,44.0,-100.00,West,275,0.0,-999.0,92,0.00,,,0.00,,2013-01-24 17:43:00,
2013-01-24 11:52:00,47.0,44.0,-100.00,West,275,0.0,-999.0,92,0.00,,,0.00,,2013-01-24 17:52:00,
2013-01-24 12:00:00,47.0,43.0,-100.00,WNW,283,0.0,-999.0,85,0.00,,,0.00,,2013-01-24 18:00:00,
2013-01-24 12:33:00,47.0,43.0,-100.00,WNW,283,0.0,-999.0,85,0.00,,,0.00,,2013-01-24 18:33:00,
2013-01-24 12:43:00,47.0,43.0,-100.00,WNW,283,0.0,-999.0,85,0.00,,,0.00,,2013-01-24 18:43:00,
2013-01-24 12:53:00,47.0,43.0,-100.00,WNW,283,0.0,-999.0,85,0.00,,,0.00,,2013-01-24 18:53:00,
2013-01-24 14:00:00,46.0,39.0,-100.00,ESE,122,1.0,-999.0,75,0.00,,,0.00,,2013-01-24 20:00:00,
2013-01-24 14:32:00,46.0,39.0,-100.00,ESE,122,1.0,-999.0,75,0.00,,,0.00,,2013-01-24 20:32:00,
2013-01-24 14:42:00,46.0,39.0,-100.00,ESE,122,1.0,-999.0,75,0.00,,,0.00,,2013-01-24 20:42:00,
2013-01-24 14:52:00,46.0,39.0,-100.00,ESE,122,1.0,-999.0,75,0.00,,,0.00,,2013-01-24 20:52:00,
2013-01-24 15:00:00,46.0,38.0,-100.00,ESE,106,0.0,-999.0,72,0.00,,,0.00,,2013-01-24 21:00:00,
2013-01-24 15:33:00,46.0,38.0,-100.00,ESE,106,0.0,-999.0,72,0.00,,,0.00,,2013-01-24 21:33:00,
2013-01-24 15:43:00,46.0,38.0,-100.00,ESE,106,0.0,-999.0,72,0.00,,,0.00,,2013-01-24 21:43:00,
2013-01-24 15:53:00,46.0,38.0,-100.00,ESE,106,0.0,-999.0,72,0.00,,,0.00,,2013-01-24 21:53:00,
2013-01-24 16:00:00,45.0,38.0,-100.00,ESE,102,0.0,-999.0,76,0.00,,,0.00,,2013-01-24 22:00:00,
2013-01-24 16:32:00,45.0,38.0,-100.00,ESE,102,0.0,-999.0,76,0.00,,,0.00,,2013-01-24 22:32:00,
2013-01-24 16:42:00,45.0,38.0,-100.00,ESE,102,0.0,-999.0,76,0.00,,,0.00,,2013-01-24 22:42:00,
2013-01-24 16:53:00,45.0,38.0,-100.00,ESE,102,0.0,-999.0,76,0.00,,,0.00,,2013-01-24 22:53:00,
2013-01-24 17:00:00,45.0,37.0,-100.00,NNE,32,0.0,-999.0,74,0.00,,,0.00,,2013-01-24 23:00:00,
2013-01-24 17:32:00,45.0,37.0,-100.00,NNE,32,0.0,-999.0,74,0.00,,,0.00,,2013-01-24 23:32:00,
2013-01-24 17:42:00,45.0,37.0,-100.00,NNE,32,0.0,-999.0,74,0.00,,,0.00,,2013-01-24 23:42:00,
2013-01-24 17:52:00,45.0,37.0,-100.00,NNE,32,0.0,-999.0,74,0.00,,,0.00,,2013-01-24 23:52:00,
2013-01-24 18:00:00,43.0,34.0,-100.00,SSE,157,0.0,-999.0,70,0.00,,,0.00,,2013-01-25 00:00:00,
2013-01-24 18:32:00,43.0,34.0,-100.00,SSE,157,0.0,-999.0,70,0.00,,,0.00,,2013-01-25 00:32:00,
2013-01-24 18:42:00,43.0,34.0,-100.00,SSE,157,0.0,-999.0,70,0.00,,,0.00,,2013-01-25 00:42:00,
2013-01-24 18:53:00,43.0,34.0,-100.00,SSE,157,0.0,-999.0,70,0.00,,,0.00,,2013-01-25 00:53:00,
2013-01-24 19:00:00,43.0,35.0,-100.00,NNW,340,0.0,-999.0,73,0.00,,,0.00,,2013-01-25 01:00:00,
2013-01-24 19:32:00,43.0,35.0,-100.00,NNW,340,0.0,-999.0,73,0.00,,,0.00,,2013-01-25 01:32:00,
2013-01-24 19:42:00,43.0,35.0,-100.00,NNW,340,0.0,-999.0,73,0.00,,,0.00,,2013-01-25 01:42:00,
2013-01-24 19:52:00,43.0,35.0,-100.00,NNW,340,0.0,-999.0,73,0.00,,,0.00,,2013-01-25 01:52:00,
2013-01-24 20:00:00,41.0,33.0,-100.00,North,359,0.0,-999.0,74,0.00,,,0.00,,2013-01-25 02:00:00,
2013-01-24 20:43:00,41.0,33.0,-100.00,North,359,0.0,-999.0,74,0.00,,,0.00,,2013-01-25 02:43:00,
2013-01-24 20:53:00,41.0,33.0,-100.00,North,359,0.0,-999.0,74,0.00,,,0.00,,2013-01-25 02:53:00,
2013-01-24 21:00:00,40.0,33.0,-100.00,NNE,30,0.0,-999.0,75,0.00,,,0.00,,2013-01-25 03:00:00,
2013-01-24 21:33:00,40.0,33.0,-100.00,NNE,30,0.0,-999.0,75,0.00,,,0.00,,2013-01-25 03:33:00,
2013-01-24 21:42:00,40.0,33.0,-100.00,NNE,30,0.0,-999.0,75,0.00,,,0.00,,2013-01-25 03:42:00,
2013-01-24 21:52:00,40.0,33.0,-100.00,NNE,30,0.0,-999.0,75,0.00,,,0.00,,2013-01-25 03:52:00,
2013-01-24 22:00:00,40.0,34.0,-100.00,East,98,0.0,-999.0,81,0.00,,,0.00,,2013-01-25 04:00:00,
2013-01-24 22:32:00,40.0,34.0,-100.00,East,98,0.0,-999.0,81,0.00,,,0.00,,2013-01-25 04:32:00,
2013-01-24 22:42:00,40.0,34.0,-100.00,East,98,0.0,-999.0,81,0.00,,,0.00,,2013-01-25 04:42:00,
2013-01-24 22:52:00,40.0,34.0,-100.00,East,98,0.0,-999.0,81,0.00,,,0.00,,2013-01-25 04:52:00,
2013-01-24 23:00:00,40.0,35.0,-100.00,East,101,0.0,-999.0,83,0.00,,,0.00,,2013-01-25 05:00:00,
2013-01-24 23:32:00,40.0,35.0,-100.00,East,101,0.0,-999.0,83,0.00,,,0.00,,2013-01-25 05:32:00,
2013-01-24 23:43:00,40.0,35.0,-100.00,East,101,0.0,-999.0,83,0.00,,,0.00,,2013-01-25 05:43:00,
2013-01-24 23:52:00,40.0,35.0,-100.00,East,101,0.0,-999.0,83,0.00,,,0.00,,2013-01-25 05:52:00,